sensor_id;sensor_type;location;lat;lon;timestamp;pressure;altitude;pressure_sealevel;temperature;humidity
12172;BME280;6149;52.418;13.668;2023-01-28T00:02:03;102248.66;;;-2.07;100.00
12172;BME280;6149;52.418;13.668;2023-01-28T00:04:32;102252.00;;;-2.11;100.00
12172;BME280;6149;52.418;13.668;2023-01-28T00:07:01;102252.75;;;-2.15;100.00
12172;BME280;6149;52.418;13.668;2023-01-28T00:09:30;102250.13;;;-2.17;100.00
12172;BME280;6149;52.418;13.668;2023-01-28T00:11:57;102251.81;;;-2.19;100.00
12172;BME280;6149;52.418;13.668;2023-01-28T00:14:27;102252.56;;;-2.24;100.00
12172;BME280;6149;52.418;13.668;2023-01-28T00:16:54;102252.50;;;-2.26;100.00
12172;BME280;6149;52.418;13.668;2023-01-28T00:19:22;102253.28;;;-2.30;100.00
12172;BME280;6149;52.418;13.668;2023-01-28T00:21:49;102253.22;;;-2.31;100.00
12172;BME280;6149;52.418;13.668;2023-01-28T00:24:15;102257.44;;;-2.35;100.00
12172;BME280;6149;52.418;13.668;2023-01-28T00:26:43;102259.13;;;-2.37;100.00
12172;BME280;6149;52.418;13.668;2023-01-28T00:29:10;102255.56;;;-2.41;100.00
12172;BME280;6149;52.418;13.668;2023-01-28T00:31:39;102261.50;;;-2.45;100.00
12172;BME280;6149;52.418;13.668;2023-01-28T00:34:08;102270.06;;;-2.47;100.00
12172;BME280;6149;52.418;13.668;2023-01-28T00:36:35;102270.03;;;-2.49;100.00
12172;BME280;6149;52.418;13.668;2023-01-28T00:39:05;102269.97;;;-2.50;100.00
12172;BME280;6149;52.418;13.668;2023-01-28T00:41:33;102269.09;;;-2.51;100.00
12172;BME280;6149;52.418;13.668;2023-01-28T00:44:02;102277.66;;;-2.53;100.00
12172;BME280;6149;52.418;13.668;2023-01-28T00:46:30;102266.34;;;-2.57;100.00
12172;BME280;6149;52.418;13.668;2023-01-28T00:48:59;102265.41;;;-2.59;100.00
12172;BME280;6149;52.418;13.668;2023-01-28T00:51:26;102268.88;;;-2.60;100.00
12172;BME280;6149;52.418;13.668;2023-01-28T00:53:52;102272.19;;;-2.65;100.00
12172;BME280;6149;52.418;13.668;2023-01-28T00:56:20;102272.13;;;-2.67;100.00
12172;BME280;6149;52.418;13.668;2023-01-28T00:58:47;102275.50;;;-2.70;100.00
12172;BME280;6149;52.418;13.668;2023-01-28T01:01:14;102280.63;;;-2.71;100.00
12172;BME280;6149;52.418;13.668;2023-01-28T01:03:46;102281.38;;;-2.75;100.00
12172;BME280;6149;52.418;13.668;2023-01-28T01:06:20;102289.06;;;-2.78;100.00
12172;BME280;6149;52.418;13.668;2023-01-28T01:08:50;102286.38;;;-2.81;100.00
12172;BME280;6149;52.418;13.668;2023-01-28T01:11:17;102290.63;;;-2.83;100.00
12172;BME280;6149;52.418;13.668;2023-01-28T01:13:49;102282.81;;;-2.85;100.00
12172;BME280;6149;52.418;13.668;2023-01-28T01:16:17;102284.50;;;-2.87;100.00
12172;BME280;6149;52.418;13.668;2023-01-28T01:18:45;102280.16;;;-2.88;100.00
12172;BME280;6149;52.418;13.668;2023-01-28T01:21:14;102277.47;;;-2.91;100.00
12172;BME280;6149;52.418;13.668;2023-01-28T01:23:44;102284.31;;;-2.93;100.00
12172;BME280;6149;52.418;13.668;2023-01-28T01:26:11;102279.03;;;-2.96;100.00
12172;BME280;6149;52.418;13.668;2023-01-28T01:28:40;102275.53;;;-2.99;100.00
12172;BME280;6149;52.418;13.668;2023-01-28T01:31:10;102272.88;;;-3.01;100.00
12172;BME280;6149;52.418;13.668;2023-01-28T01:33:39;102276.25;;;-3.04;100.00
12172;BME280;6149;52.418;13.668;2023-01-28T01:36:09;102278.81;;;-3.05;100.00
12172;BME280;6149;52.418;13.668;2023-01-28T01:38:39;102276.16;;;-3.07;100.00
12172;BME280;6149;52.418;13.668;2023-01-28T01:41:21;102280.47;;;-3.07;100.00
12172;BME280;6149;52.418;13.668;2023-01-28T01:43:52;102284.75;;;-3.08;100.00
12172;BME280;6149;52.418;13.668;2023-01-28T01:46:26;102283.94;;;-3.07;100.00
12172;BME280;6149;52.418;13.668;2023-01-28T01:49:07;102283.09;;;-3.06;100.00
12172;BME280;6149;52.418;13.668;2023-01-28T01:51:40;102282.31;;;-3.03;100.00
12172;BME280;6149;52.418;13.668;2023-01-28T01:54:12;102282.41;;;-3.00;100.00
12172;BME280;6149;52.418;13.668;2023-01-28T01:56:43;102286.78;;;-2.97;100.00
12172;BME280;6149;52.418;13.668;2023-01-28T01:59:14;102285.09;;;-2.95;100.00
12172;BME280;6149;52.418;13.668;2023-01-28T02:01:46;102292.06;;;-2.93;100.00
12172;BME280;6149;52.418;13.668;2023-01-28T02:04:18;102296.50;;;-2.89;100.00
12172;BME280;6149;52.418;13.668;2023-01-28T02:06:48;102295.72;;;-2.86;100.00
12172;BME280;6149;52.418;13.668;2023-01-28T02:09:22;102294.09;;;-2.83;100.00
12172;BME280;6149;52.418;13.668;2023-01-28T02:11:54;102299.41;;;-2.78;100.00
12172;BME280;6149;52.418;13.668;2023-01-28T02:14:31;102305.56;;;-2.75;100.00
12172;BME280;6149;52.418;13.668;2023-01-28T02:17:02;102301.34;;;-2.71;100.00
12172;BME280;6149;52.418;13.668;2023-01-28T02:19:36;102310.97;;;-2.67;100.00
12172;BME280;6149;52.418;13.668;2023-01-28T02:22:19;102305.91;;;-2.62;100.00
12172;BME280;6149;52.418;13.668;2023-01-28T02:25:23;102298.25;;;-2.58;100.00
12172;BME280;6149;52.418;13.668;2023-01-28T02:28:22;102289.78;;;-2.52;100.00
12172;BME280;6149;52.418;13.668;2023-01-28T02:31:04;102290.94;;;-2.41;100.00
12172;BME280;6149;52.418;13.668;2023-01-28T02:33:40;102302.19;;;-2.41;100.00
12172;BME280;6149;52.418;13.668;2023-01-28T02:36:16;102296.22;;;-2.38;100.00
12172;BME280;6149;52.418;13.668;2023-01-28T02:38:51;102297.19;;;-2.34;100.00
12172;BME280;6149;52.418;13.668;2023-01-28T02:41:24;102293.78;;;-2.32;100.00
12172;BME280;6149;52.418;13.668;2023-01-28T02:44:01;102299.09;;;-2.27;100.00
12172;BME280;6149;52.418;13.668;2023-01-28T02:46:34;102296.59;;;-2.24;100.00
12172;BME280;6149;52.418;13.668;2023-01-28T02:49:24;102297.47;;;-2.22;100.00
12172;BME280;6149;52.418;13.668;2023-01-28T02:52:19;102301.19;;;-2.13;100.00
12172;BME280;6149;52.418;13.668;2023-01-28T02:55:19;102303.78;;;-2.13;100.00
12172;BME280;6149;52.418;13.668;2023-01-28T02:57:59;102302.94;;;-2.12;100.00
12172;BME280;6149;52.418;13.668;2023-01-28T03:00:42;102300.41;;;-2.10;100.00
12172;BME280;6149;52.418;13.668;2023-01-28T03:03:16;102303.91;;;-2.08;100.00
12172;BME280;6149;52.418;13.668;2023-01-28T03:05:51;102299.69;;;-2.05;100.00
12172;BME280;6149;52.418;13.668;2023-01-28T03:08:35;102306.75;;;-1.99;100.00
12172;BME280;6149;52.418;13.668;2023-01-28T03:11:25;102301.69;;;-1.94;100.00
12172;BME280;6149;52.418;13.668;2023-01-28T03:14:15;102305.16;;;-1.94;100.00
12172;BME280;6149;52.418;13.668;2023-01-28T03:17:11;102302.56;;;-1.94;100.00
12172;BME280;6149;52.418;13.668;2023-01-28T03:20:02;102312.09;;;-1.93;100.00
12172;BME280;6149;52.418;13.668;2023-01-28T03:22:50;102309.66;;;-1.87;100.00
12172;BME280;6149;52.418;13.668;2023-01-28T03:25:41;102312.25;;;-1.85;100.00
12172;BME280;6149;52.418;13.668;2023-01-28T03:28:30;102294.16;;;-1.84;100.00
12172;BME280;6149;52.418;13.668;2023-01-28T03:31:19;102310.63;;;-1.82;100.00
12172;BME280;6149;52.418;13.668;2023-01-28T03:34:09;102306.34;;;-1.80;100.00
12172;BME280;6149;52.418;13.668;2023-01-28T03:36:56;102307.22;;;-1.79;100.00
12172;BME280;6149;52.418;13.668;2023-01-28T03:39:28;102298.66;;;-1.77;100.00
12172;BME280;6149;52.418;13.668;2023-01-28T03:42:02;102295.19;;;-1.77;100.00
12172;BME280;6149;52.418;13.668;2023-01-28T03:44:31;102303.00;;;-1.76;100.00
12172;BME280;6149;52.418;13.668;2023-01-28T03:47:20;102290.06;;;-1.74;100.00
12172;BME280;6149;52.418;13.668;2023-01-28T03:49:52;102293.66;;;-1.69;100.00
12172;BME280;6149;52.418;13.668;2023-01-28T03:52:23;102288.47;;;-1.69;100.00
12172;BME280;6149;52.418;13.668;2023-01-28T03:54:52;102297.22;;;-1.65;100.00
12172;BME280;6149;52.418;13.668;2023-01-28T03:57:22;102294.59;;;-1.65;100.00
12172;BME280;6149;52.418;13.668;2023-01-28T03:59:50;102294.59;;;-1.65;100.00
12172;BME280;6149;52.418;13.668;2023-01-28T04:02:19;102294.69;;;-1.62;100.00
12172;BME280;6149;52.418;13.668;2023-01-28T04:04:48;102295.56;;;-1.62;100.00
12172;BME280;6149;52.418;13.668;2023-01-28T04:07:21;102289.53;;;-1.61;100.00
12172;BME280;6149;52.418;13.668;2023-01-28T04:09:49;102288.69;;;-1.60;100.00
12172;BME280;6149;52.418;13.668;2023-01-28T04:12:19;102290.41;;;-1.60;100.00
12172;BME280;6149;52.418;13.668;2023-01-28T04:14:49;102299.09;;;-1.58;100.00
12172;BME280;6149;52.418;13.668;2023-01-28T04:17:16;102287.06;;;-1.56;100.00
12172;BME280;6149;52.418;13.668;2023-01-28T04:19:43;102291.44;;;-1.54;100.00
12172;BME280;6149;52.418;13.668;2023-01-28T04:22:13;102293.22;;;-1.51;100.00
12172;BME280;6149;52.418;13.668;2023-01-28T04:24:39;102289.81;;;-1.50;100.00
12172;BME280;6149;52.418;13.668;2023-01-28T04:27:07;102296.75;;;-1.48;100.00
12172;BME280;6149;52.418;13.668;2023-01-28T04:29:34;102294.19;;;-1.46;100.00
12172;BME280;6149;52.418;13.668;2023-01-28T04:32:04;102295.97;;;-1.44;100.00
12172;BME280;6149;52.418;13.668;2023-01-28T04:34:33;102305.56;;;-1.41;100.00
12172;BME280;6149;52.418;13.668;2023-01-28T04:37:00;102305.59;;;-1.40;100.00
12172;BME280;6149;52.418;13.668;2023-01-28T04:39:31;102305.63;;;-1.38;100.00
12172;BME280;6149;52.418;13.668;2023-01-28T04:42:00;102302.22;;;-1.36;100.00
12172;BME280;6149;52.418;13.668;2023-01-28T04:44:26;102302.22;;;-1.36;100.00
12172;BME280;6149;52.418;13.668;2023-01-28T04:46:53;102305.78;;;-1.32;100.00
12172;BME280;6149;52.418;13.668;2023-01-28T04:49:21;102305.06;;;-1.25;100.00
12172;BME280;6149;52.418;13.668;2023-01-28T04:51:48;102308.66;;;-1.20;100.00
12172;BME280;6149;52.418;13.668;2023-01-28T04:54:15;102298.28;;;-1.20;100.00
12172;BME280;6149;52.418;13.668;2023-01-28T04:56:46;102305.22;;;-1.19;100.00
12172;BME280;6149;52.418;13.668;2023-01-28T04:59:15;102307.81;;;-1.19;100.00
12172;BME280;6149;52.418;13.668;2023-01-28T05:01:42;102303.53;;;-1.17;100.00
12172;BME280;6149;52.418;13.668;2023-01-28T05:04:10;102300.09;;;-1.16;100.00
12172;BME280;6149;52.418;13.668;2023-01-28T05:06:37;102306.16;;;-1.15;100.00
12172;BME280;6149;52.418;13.668;2023-01-28T05:09:03;102307.91;;;-1.14;100.00
12172;BME280;6149;52.418;13.668;2023-01-28T05:11:31;102309.66;;;-1.13;100.00
12172;BME280;6149;52.418;13.668;2023-01-28T05:14:01;102309.66;;;-1.13;100.00
12172;BME280;6149;52.418;13.668;2023-01-28T05:16:28;102313.97;;;-1.14;100.00
12172;BME280;6149;52.418;13.668;2023-01-28T05:19:01;102318.34;;;-1.13;100.00
12172;BME280;6149;52.418;13.668;2023-01-28T05:21:31;102325.28;;;-1.12;100.00
12172;BME280;6149;52.418;13.668;2023-01-28T05:23:59;102328.72;;;-1.13;100.00
12172;BME280;6149;52.418;13.668;2023-01-28T05:26:27;102326.97;;;-1.14;100.00
12172;BME280;6149;52.418;13.668;2023-01-28T05:28:57;102325.25;;;-1.13;100.00
12172;BME280;6149;52.418;13.668;2023-01-28T05:31:28;102329.59;;;-1.12;100.00
12172;BME280;6149;52.418;13.668;2023-01-28T05:33:55;102324.41;;;-1.12;100.00
12172;BME280;6149;52.418;13.668;2023-01-28T05:36:23;102333.91;;;-1.13;100.00
12172;BME280;6149;52.418;13.668;2023-01-28T05:38:49;102333.91;;;-1.13;100.00
12172;BME280;6149;52.418;13.668;2023-01-28T05:41:16;102333.06;;;-1.12;100.00
12172;BME280;6149;52.418;13.668;2023-01-28T05:43:43;102341.72;;;-1.10;100.00
12172;BME280;6149;52.418;13.668;2023-01-28T05:46:12;102331.31;;;-1.11;100.00
12172;BME280;6149;52.418;13.668;2023-01-28T05:48:43;102332.19;;;-1.11;100.00
12172;BME280;6149;52.418;13.668;2023-01-28T05:51:10;102327.88;;;-1.10;100.00
12172;BME280;6149;52.418;13.668;2023-01-28T05:53:36;102333.94;;;-1.10;100.00
12172;BME280;6149;52.418;13.668;2023-01-28T05:56:05;102330.50;;;-1.09;100.00
12172;BME280;6149;52.418;13.668;2023-01-28T05:58:33;102333.09;;;-1.09;100.00
12172;BME280;6149;52.418;13.668;2023-01-28T06:01:01;102330.53;;;-1.07;100.00
12172;BME280;6149;52.418;13.668;2023-01-28T06:03:31;102318.47;;;-1.05;100.00
12172;BME280;6149;52.418;13.668;2023-01-28T06:06:11;102328.00;;;-1.04;100.00
12172;BME280;6149;52.418;13.668;2023-01-28T06:08:39;102334.91;;;-1.05;100.00
12172;BME280;6149;52.418;13.668;2023-01-28T06:11:07;102339.19;;;-1.07;100.00
12172;BME280;6149;52.418;13.668;2023-01-28T06:13:33;102334.84;;;-1.08;100.00
12172;BME280;6149;52.418;13.668;2023-01-28T06:16:02;102334.84;;;-1.08;100.00
12172;BME280;6149;52.418;13.668;2023-01-28T06:18:31;102334.00;;;-1.07;100.00
12172;BME280;6149;52.418;13.668;2023-01-28T06:20:58;102340.91;;;-1.07;100.00
12172;BME280;6149;52.418;13.668;2023-01-28T06:23:30;102342.63;;;-1.08;100.00
12172;BME280;6149;52.418;13.668;2023-01-28T06:25:58;102338.34;;;-1.06;100.00
12172;BME280;6149;52.418;13.668;2023-01-28T06:28:27;102343.56;;;-1.06;100.00
12172;BME280;6149;52.418;13.668;2023-01-28T06:30:56;102332.28;;;-1.06;100.00
12172;BME280;6149;52.418;13.668;2023-01-28T06:33:23;102333.16;;;-1.06;100.00
12172;BME280;6149;52.418;13.668;2023-01-28T06:35:54;102339.25;;;-1.05;100.00
12172;BME280;6149;52.418;13.668;2023-01-28T06:38:26;102335.81;;;-1.04;100.00
12172;BME280;6149;52.418;13.668;2023-01-28T06:40:53;102347.94;;;-1.03;100.00
12172;BME280;6149;52.418;13.668;2023-01-28T06:43:24;102337.56;;;-1.03;100.00
12172;BME280;6149;52.418;13.668;2023-01-28T06:45:53;102343.63;;;-1.03;100.00
12172;BME280;6149;52.418;13.668;2023-01-28T06:48:22;102345.38;;;-1.02;100.00
12172;BME280;6149;52.418;13.668;2023-01-28T06:50:48;102340.19;;;-1.02;100.00
12172;BME280;6149;52.418;13.668;2023-01-28T06:53:17;102347.97;;;-1.02;100.00
12172;BME280;6149;52.418;13.668;2023-01-28T06:55:47;102354.06;;;-0.99;100.00
12172;BME280;6149;52.418;13.668;2023-01-28T06:58:15;102352.41;;;-0.97;100.00
12172;BME280;6149;52.418;13.668;2023-01-28T07:00:43;102356.72;;;-0.98;100.00
12172;BME280;6149;52.418;13.668;2023-01-28T07:03:11;102344.59;;;-0.97;100.00
12172;BME280;6149;52.418;13.668;2023-01-28T07:05:39;102347.19;;;-0.97;100.00
12172;BME280;6149;52.418;13.668;2023-01-28T07:08:07;102348.06;;;-0.97;100.00
12172;BME280;6149;52.418;13.668;2023-01-28T07:10:35;102353.34;;;-0.94;100.00
12172;BME280;6149;52.418;13.668;2023-01-28T07:13:08;102357.69;;;-0.93;100.00
12172;BME280;6149;52.418;13.668;2023-01-28T07:15:36;102349.03;;;-0.93;100.00
12172;BME280;6149;52.418;13.668;2023-01-28T07:18:04;102348.22;;;-0.91;100.00
12172;BME280;6149;52.418;13.668;2023-01-28T07:20:32;102358.56;;;-0.92;100.00
12172;BME280;6149;52.418;13.668;2023-01-28T07:23:00;102353.41;;;-0.91;100.00
12172;BME280;6149;52.418;13.668;2023-01-28T07:25:30;102359.47;;;-0.90;100.00
12172;BME280;6149;52.418;13.668;2023-01-28T07:27:57;102360.34;;;-0.90;100.00
12172;BME280;6149;52.418;13.668;2023-01-28T07:30:39;102356.03;;;-0.89;100.00
12172;BME280;6149;52.418;13.668;2023-01-28T07:33:05;102363.03;;;-0.87;100.00
12172;BME280;6149;52.418;13.668;2023-01-28T07:35:33;102358.75;;;-0.85;100.00
12172;BME280;6149;52.418;13.668;2023-01-28T07:38:00;102353.59;;;-0.83;100.00
12172;BME280;6149;52.418;13.668;2023-01-28T07:40:29;102361.75;;;-0.65;100.00
12172;BME280;6149;52.418;13.668;2023-01-28T07:42:57;102354.63;;;-0.75;100.00
12172;BME280;6149;52.418;13.668;2023-01-28T07:45:27;102349.41;;;-0.77;100.00
12172;BME280;6149;52.418;13.668;2023-01-28T07:48:00;102363.22;;;-0.78;100.00
12172;BME280;6149;52.418;13.668;2023-01-28T07:50:32;102360.66;;;-0.76;100.00
12172;BME280;6149;52.418;13.668;2023-01-28T07:53:02;102360.69;;;-0.75;100.00
12172;BME280;6149;52.418;13.668;2023-01-28T07:55:30;102352.91;;;-0.73;100.00
12172;BME280;6149;52.418;13.668;2023-01-28T07:58:01;102366.81;;;-0.71;100.00
12172;BME280;6149;52.418;13.668;2023-01-28T08:00:33;102361.66;;;-0.70;100.00
12172;BME280;6149;52.418;13.668;2023-01-28T08:03:12;102364.28;;;-0.68;100.00
12172;BME280;6149;52.418;13.668;2023-01-28T08:05:44;102366.94;;;-0.65;100.00
12172;BME280;6149;52.418;13.668;2023-01-28T08:08:13;102360.94;;;-0.62;100.00
12172;BME280;6149;52.418;13.668;2023-01-28T08:10:42;102366.19;;;-0.59;100.00
12172;BME280;6149;52.418;13.668;2023-01-28T08:13:12;102365.38;;;-0.57;100.00
12172;BME280;6149;52.418;13.668;2023-01-28T08:15:40;102362.81;;;-0.55;100.00
12172;BME280;6149;52.418;13.668;2023-01-28T08:18:14;102362.00;;;-0.53;100.00
12172;BME280;6149;52.418;13.668;2023-01-28T08:20:43;102364.84;;;-0.42;100.00
12172;BME280;6149;52.418;13.668;2023-01-28T08:23:14;102370.00;;;-0.44;100.00
12172;BME280;6149;52.418;13.668;2023-01-28T08:25:44;102376.94;;;-0.43;100.00
12172;BME280;6149;52.418;13.668;2023-01-28T08:28:15;102380.50;;;-0.39;100.00
12172;BME280;6149;52.418;13.668;2023-01-28T08:30:42;102378.81;;;-0.36;100.00
12172;BME280;6149;52.418;13.668;2023-01-28T08:33:14;102382.31;;;-0.34;100.00
12172;BME280;6149;52.418;13.668;2023-01-28T08:35:42;102380.66;;;-0.30;100.00
12172;BME280;6149;52.418;13.668;2023-01-28T08:38:11;102382.47;;;-0.26;100.00
12172;BME280;6149;52.418;13.668;2023-01-28T08:40:39;102391.19;;;-0.22;100.00
12172;BME280;6149;52.418;13.668;2023-01-28T08:43:09;102395.63;;;-0.18;100.00
12172;BME280;6149;52.418;13.668;2023-01-28T08:45:38;102390.47;;;-0.15;100.00
12172;BME280;6149;52.418;13.668;2023-01-28T08:48:13;102393.16;;;-0.12;100.00
12172;BME280;6149;52.418;13.668;2023-01-28T08:50:42;102394.06;;;-0.10;100.00
12172;BME280;6149;52.418;13.668;2023-01-28T08:53:13;102393.25;;;-0.08;100.00
12172;BME280;6149;52.418;13.668;2023-01-28T08:55:43;102390.66;;;-0.06;100.00
12172;BME280;6149;52.418;13.668;2023-01-28T08:58:15;102401.16;;;-0.02;100.00
12172;BME280;6149;52.418;13.668;2023-01-28T09:00:44;102409.00;;;0.00;100.00
12172;BME280;6149;52.418;13.668;2023-01-28T09:03:14;102395.13;;;0.03;100.00
12172;BME280;6149;52.418;13.668;2023-01-28T09:05:45;102400.38;;;0.04;100.00
12172;BME280;6149;52.418;13.668;2023-01-28T09:08:14;102420.34;;;0.07;100.00
12172;BME280;6149;52.418;13.668;2023-01-28T09:10:42;102417.84;;;0.11;100.00
12172;BME280;6149;52.418;13.668;2023-01-28T09:13:13;102424.84;;;0.14;100.00
12172;BME280;6149;52.418;13.668;2023-01-28T09:15:41;102423.16;;;0.17;100.00
12172;BME280;6149;52.418;13.668;2023-01-28T09:18:09;102424.09;;;0.21;100.00
12172;BME280;6149;52.418;13.668;2023-01-28T09:20:40;102418.13;;;0.25;100.00
12172;BME280;6149;52.418;13.668;2023-01-28T09:23:07;102426.81;;;0.27;100.00
12172;BME280;6149;52.418;13.668;2023-01-28T09:25:39;102433.81;;;0.29;100.00
12172;BME280;6149;52.418;13.668;2023-01-28T09:28:07;102431.22;;;0.29;100.00
12172;BME280;6149;52.418;13.668;2023-01-28T09:30:40;102436.47;;;0.32;100.00
12172;BME280;6149;52.418;13.668;2023-01-28T09:33:07;102435.66;;;0.35;100.00
12172;BME280;6149;52.418;13.668;2023-01-28T09:35:35;102440.06;;;0.41;100.00
12172;BME280;6149;52.418;13.668;2023-01-28T09:38:15;102437.50;;;0.42;100.00
12172;BME280;6149;52.418;13.668;2023-01-28T09:40:43;102442.72;;;0.44;100.00
12172;BME280;6149;52.418;13.668;2023-01-28T09:43:30;102434.13;;;0.48;100.00
12172;BME280;6149;52.418;13.668;2023-01-28T09:46:11;102432.47;;;0.51;100.00
12172;BME280;6149;52.418;13.668;2023-01-28T09:48:43;102434.25;;;0.55;100.00
12172;BME280;6149;52.418;13.668;2023-01-28T09:51:25;102443.88;;;0.59;100.00
12172;BME280;6149;52.418;13.668;2023-01-28T09:54:03;102443.06;;;0.62;100.00
12172;BME280;6149;52.418;13.668;2023-01-28T09:56:41;102438.75;;;0.64;100.00
12172;BME280;6149;52.418;13.668;2023-01-28T09:59:17;102434.47;;;0.68;100.00
12172;BME280;6149;52.418;13.668;2023-01-28T10:01:52;102442.38;;;0.72;100.00
12172;BME280;6149;52.418;13.668;2023-01-28T10:04:31;102445.88;;;0.76;100.00
12172;BME280;6149;52.418;13.668;2023-01-28T10:07:16;102444.19;;;0.79;100.00
12172;BME280;6149;52.418;13.668;2023-01-28T10:09:56;102442.56;;;0.84;100.00
12172;BME280;6149;52.418;13.668;2023-01-28T10:12:40;102441.69;;;0.84;100.00
12172;BME280;6149;52.418;13.668;2023-01-28T10:15:38;102440.06;;;0.90;100.00
12172;BME280;6149;52.418;13.668;2023-01-28T10:18:38;102437.53;;;0.95;100.00
12172;BME280;6149;52.418;13.668;2023-01-28T10:21:12;102427.13;;;0.96;99.55
12172;BME280;6149;52.418;13.668;2023-01-28T10:23:49;102431.53;;;0.99;96.43
12172;BME280;6149;52.418;13.668;2023-01-28T10:26:25;102429.84;;;1.03;97.13
12172;BME280;6149;52.418;13.668;2023-01-28T10:29:05;102430.78;;;1.06;98.09
12172;BME280;6149;52.418;13.668;2023-01-28T10:31:43;102423.84;;;1.08;96.03
12172;BME280;6149;52.418;13.668;2023-01-28T10:34:17;102436.03;;;1.12;93.64
12172;BME280;6149;52.418;13.668;2023-01-28T10:36:46;102423.00;;;1.12;95.15
12172;BME280;6149;52.418;13.668;2023-01-28T10:39:16;102425.63;;;1.12;94.87
12172;BME280;6149;52.418;13.668;2023-01-28T10:41:49;102420.44;;;1.14;95.92
12172;BME280;6149;52.418;13.668;2023-01-28T10:44:28;102430.03;;;1.16;96.41
12172;BME280;6149;52.418;13.668;2023-01-28T10:47:01;102426.63;;;1.20;95.75
12172;BME280;6149;52.418;13.668;2023-01-28T10:49:31;102418.00;;;1.24;94.02
12172;BME280;6149;52.418;13.668;2023-01-28T10:52:12;102424.09;;;1.25;96.54
12172;BME280;6149;52.418;13.668;2023-01-28T10:54:40;102416.28;;;1.26;91.84
12172;BME280;6149;52.418;13.668;2023-01-28T10:57:11;102414.59;;;1.30;92.55
12172;BME280;6149;52.418;13.668;2023-01-28T10:59:41;102420.72;;;1.32;92.60
12172;BME280;6149;52.418;13.668;2023-01-28T11:02:28;102424.22;;;1.34;91.97
12172;BME280;6149;52.418;13.668;2023-01-28T11:05:01;102425.13;;;1.38;91.23
12172;BME280;6149;52.418;13.668;2023-01-28T11:07:40;102423.44;;;1.40;90.81
12172;BME280;6149;52.418;13.668;2023-01-28T11:10:28;102427.84;;;1.44;89.32
12172;BME280;6149;52.418;13.668;2023-01-28T11:13:05;102421.78;;;1.45;89.73
12172;BME280;6149;52.418;13.668;2023-01-28T11:15:45;102429.53;;;1.42;87.17
12172;BME280;6149;52.418;13.668;2023-01-28T11:18:17;102429.53;;;1.40;86.78
12172;BME280;6149;52.418;13.668;2023-01-28T11:20:52;102419.97;;;1.41;85.60
12172;BME280;6149;52.418;13.668;2023-01-28T11:23:24;102417.31;;;1.38;87.20
12172;BME280;6149;52.418;13.668;2023-01-28T11:26:00;102420.81;;;1.40;86.93
12172;BME280;6149;52.418;13.668;2023-01-28T11:28:32;102413.00;;;1.38;86.62
12172;BME280;6149;52.418;13.668;2023-01-28T11:31:02;102417.38;;;1.42;84.34
12172;BME280;6149;52.418;13.668;2023-01-28T11:33:32;102409.56;;;1.41;84.85
12172;BME280;6149;52.418;13.668;2023-01-28T11:36:11;102409.56;;;1.42;87.04
12172;BME280;6149;52.418;13.668;2023-01-28T11:38:49;102408.78;;;1.49;87.06
12172;BME280;6149;52.418;13.668;2023-01-28T11:41:24;102406.09;;;1.42;85.81
12172;BME280;6149;52.418;13.668;2023-01-28T11:43:55;102405.28;;;1.46;85.72
12172;BME280;6149;52.418;13.668;2023-01-28T11:46:52;102403.50;;;1.43;86.06
12172;BME280;6149;52.418;13.668;2023-01-28T11:49:34;102400.00;;;1.41;86.85
12172;BME280;6149;52.418;13.668;2023-01-28T11:52:21;102394.78;;;1.40;88.32
12172;BME280;6149;52.418;13.668;2023-01-28T11:55:03;102390.38;;;1.37;86.48
12172;BME280;6149;52.418;13.668;2023-01-28T11:57:54;102391.25;;;1.36;87.08
12172;BME280;6149;52.418;13.668;2023-01-28T12:00:34;102386.91;;;1.37;85.03
12172;BME280;6149;52.418;13.668;2023-01-28T12:03:32;102393.81;;;1.34;85.67
12172;BME280;6149;52.418;13.668;2023-01-28T12:06:26;102389.63;;;1.46;85.70
12172;BME280;6149;52.418;13.668;2023-01-28T12:09:06;102385.34;;;1.51;86.18
12172;BME280;6149;52.418;13.668;2023-01-28T12:11:47;102390.53;;;1.49;84.02
12172;BME280;6149;52.418;13.668;2023-01-28T12:14:58;102391.38;;;1.45;83.11
12172;BME280;6149;52.418;13.668;2023-01-28T12:18:13;102380.94;;;1.45;83.73
12172;BME280;6149;52.418;13.668;2023-01-28T12:20:53;102379.25;;;1.47;84.81
12172;BME280;6149;52.418;13.668;2023-01-28T12:23:36;102378.41;;;1.53;83.55
12172;BME280;6149;52.418;13.668;2023-01-28T12:26:18;102381.84;;;1.49;82.72
12172;BME280;6149;52.418;13.668;2023-01-28T12:29:05;102383.59;;;1.48;85.51
12172;BME280;6149;52.418;13.668;2023-01-28T12:32:02;102370.56;;;1.48;86.00
12172;BME280;6149;52.418;13.668;2023-01-28T12:35:16;102381.81;;;1.46;85.17
12172;BME280;6149;52.418;13.668;2023-01-28T12:38:07;102370.53;;;1.47;86.07
12172;BME280;6149;52.418;13.668;2023-01-28T12:40:57;102372.28;;;1.46;84.24
12172;BME280;6149;52.418;13.668;2023-01-28T12:43:41;102373.13;;;1.45;85.02
12172;BME280;6149;52.418;13.668;2023-01-28T12:46:24;102367.06;;;1.46;84.99
12172;BME280;6149;52.418;13.668;2023-01-28T12:49:04;102366.19;;;1.47;85.47
12172;BME280;6149;52.418;13.668;2023-01-28T12:51:45;102376.59;;;1.46;85.62
12172;BME280;6149;52.418;13.668;2023-01-28T12:54:20;102373.13;;;1.45;85.88
12172;BME280;6149;52.418;13.668;2023-01-28T12:56:53;102373.13;;;1.45;86.45
12172;BME280;6149;52.418;13.668;2023-01-28T12:59:26;102378.34;;;1.47;86.53
12172;BME280;6149;52.418;13.668;2023-01-28T13:02:05;102375.03;;;1.60;86.92
12172;BME280;6149;52.418;13.668;2023-01-28T13:04:46;102372.38;;;1.57;85.81
12172;BME280;6149;52.418;13.668;2023-01-28T13:07:27;102361.03;;;1.52;86.04
12172;BME280;6149;52.418;13.668;2023-01-28T13:10:03;102370.56;;;1.48;85.87
12172;BME280;6149;52.418;13.668;2023-01-28T13:12:33;102362.69;;;1.44;85.40
12172;BME280;6149;52.418;13.668;2023-01-28T13:15:03;102357.53;;;1.48;85.59
12172;BME280;6149;52.418;13.668;2023-01-28T13:17:31;102353.16;;;1.49;86.23
12172;BME280;6149;52.418;13.668;2023-01-28T13:19:58;102351.44;;;1.49;86.35